Jamestown, North Dakota
Current Conditions -  °F | °C
As of 6:56 AM on Saturday 25 Oct 2014 (Local Time) from KJMS Reporting Station
Scattered Clouds Scattered Clouds  
Wind Chill: 33°   Ceiling: Unl
Heat Index: 38°   Visibility: 10mi
Dew Point: 32°   Wind: 7mph
Humidity: 79%   Direction: 280°W
Pressure: 30.09"   Gusts: NA
Location:  46.91°N, 98.71°W
Report Text: KJMS 251156Z AUTO 28006KT 10SM SCT120 03/00 A3009 RMK AO2 SLP199 T00330000 10072 20028 53013
Loading
Personal Weather Stations






























Interactive Weather Map New forecast layout! Learn more

10-Day Weather Forecast

Advertisements
Track Severe Weather on mobile